images/hfc/images/print_logo.png
Drucken
[Quelle: ADDS]
METAR
EDDW 171620Z 02008KT CAVOK 05/03 Q1011 R88/290094 NOSIG =
TAF
EDDW 171100Z 1712/1812 08004KT CAVOK BECMG 1712/1714 02008KT BECMG 1719/1721 BKN012 TEMPO 1719/1722 3500 DZRA BKN006 BECMG 1722/1724 OVC006 TEMPO 1722/1812 2000 -DZ OVC003 BECMG 1803/1805 VRB02KT BECMG 1810/1812 19005KT =
BCMT / ECET: 06:12 / 16:07 UTC (EDDW 2019-11-17)

printlogo=no